Time,TemperatureF,DewpointF,PressureIn,WindDirection,WindDirectionDegrees,WindSpeedMPH,WindSpeedGustMPH,Humidity,HourlyPrecipIn,Conditions,Clouds,dailyrainin,SolarRadiationWatts/m^2,SoftwareType,DateUTC
2013-02-16 00:01:00,27.0,24.0,-100.00,NNE,16,5.0,9.0,87,0.00,,,0.00,0.000000,,2013-02-16 05:01:00,
2013-02-16 00:32:00,27.0,24.0,-100.00,NNE,16,5.0,9.0,87,0.00,,,0.00,0.000000,,2013-02-16 05:32:00,
2013-02-16 00:42:00,27.0,24.0,-100.00,NNE,16,5.0,9.0,87,0.00,,,0.00,0.000000,,2013-02-16 05:42:00,
2013-02-16 00:52:00,27.0,24.0,-100.00,NNE,16,5.0,9.0,87,0.00,,,0.00,0.000000,,2013-02-16 05:52:00,
2013-02-16 01:01:00,26.0,23.0,-100.00,North,4,6.0,14.0,89,0.00,,,0.00,0.000000,,2013-02-16 06:01:00,
2013-02-16 01:22:00,26.0,23.0,-100.00,North,4,6.0,14.0,89,0.00,,,0.00,0.000000,,2013-02-16 06:22:00,
2013-02-16 01:32:00,26.0,23.0,-100.00,North,4,6.0,14.0,89,0.00,,,0.00,0.000000,,2013-02-16 06:32:00,
2013-02-16 01:42:00,26.0,23.0,-100.00,North,4,6.0,14.0,89,0.00,,,0.00,0.000000,,2013-02-16 06:42:00,
2013-02-16 01:52:00,26.0,23.0,-100.00,North,4,6.0,14.0,89,0.00,,,0.00,0.000000,,2013-02-16 06:52:00,
2013-02-16 02:01:00,25.0,21.0,-100.00,NNW,348,5.0,12.0,83,0.00,,,0.00,0.000000,,2013-02-16 07:01:00,
2013-02-16 02:32:00,25.0,21.0,-100.00,NNW,348,5.0,12.0,83,0.00,,,0.00,0.000000,,2013-02-16 07:32:00,
2013-02-16 02:42:00,25.0,21.0,-100.00,NNW,348,5.0,12.0,83,0.00,,,0.00,0.000000,,2013-02-16 07:42:00,
2013-02-16 02:53:00,25.0,21.0,-100.00,NNW,348,5.0,12.0,83,0.00,,,0.00,0.000000,,2013-02-16 07:53:00,
2013-02-16 03:01:00,24.0,20.0,-100.00,North,359,3.0,11.0,83,0.00,,,0.00,0.000000,,2013-02-16 08:01:00,
2013-02-16 03:32:00,24.0,20.0,-100.00,North,359,3.0,11.0,83,0.00,,,0.00,0.000000,,2013-02-16 08:32:00,
2013-02-16 03:42:00,24.0,20.0,-100.00,North,359,3.0,11.0,83,0.00,,,0.00,0.000000,,2013-02-16 08:42:00,
2013-02-16 03:52:00,24.0,20.0,-100.00,North,359,3.0,11.0,83,0.00,,,0.00,0.000000,,2013-02-16 08:52:00,
2013-02-16 05:01:00,24.0,20.0,-100.00,NW,314,3.0,9.0,84,-99.99,,,0.00,0.000000,,2013-02-16 10:01:00,
2013-02-16 05:32:00,24.0,20.0,-100.00,NW,314,3.0,9.0,84,-99.99,,,0.00,0.000000,,2013-02-16 10:32:00,
2013-02-16 05:42:00,24.0,20.0,-100.00,NW,314,3.0,9.0,84,-99.99,,,0.00,0.000000,,2013-02-16 10:42:00,
2013-02-16 05:52:00,24.0,20.0,-100.00,NW,314,3.0,9.0,84,-99.99,,,0.00,0.000000,,2013-02-16 10:52:00,
2013-02-16 06:01:00,23.0,18.0,-100.00,NNE,13,5.0,9.0,81,0.00,,,0.00,0.000000,,2013-02-16 11:01:00,
2013-02-16 06:32:00,23.0,18.0,-100.00,NNE,13,5.0,9.0,81,0.00,,,0.00,0.000000,,2013-02-16 11:32:00,
2013-02-16 06:42:00,23.0,18.0,-100.00,NNE,13,5.0,9.0,81,0.00,,,0.00,0.000000,,2013-02-16 11:42:00,
2013-02-16 06:52:00,23.0,18.0,-100.00,NNE,13,5.0,9.0,81,0.00,,,0.00,0.000000,,2013-02-16 11:52:00,
2013-02-16 07:01:00,22.0,17.0,-100.00,North,351,5.0,11.0,82,0.00,,,0.00,0.000000,,2013-02-16 12:01:00,
2013-02-16 07:22:00,22.0,17.0,-100.00,North,351,5.0,11.0,82,0.00,,,0.00,0.000000,,2013-02-16 12:22:00,
2013-02-16 07:32:00,22.0,17.0,-100.00,North,351,5.0,11.0,82,0.00,,,0.00,0.000000,,2013-02-16 12:32:00,
2013-02-16 07:42:00,22.0,17.0,-100.00,North,351,5.0,11.0,82,0.00,,,0.00,0.000000,,2013-02-16 12:42:00,
2013-02-16 07:52:00,22.0,17.0,-100.00,North,351,5.0,11.0,82,0.00,,,0.00,0.000000,,2013-02-16 12:52:00,
2013-02-16 09:01:00,24.0,16.0,-100.00,NNW,343,3.0,11.0,71,-99.99,,,0.00,71.000000,,2013-02-16 14:01:00,
2013-02-16 09:32:00,24.0,16.0,-100.00,NNW,343,3.0,11.0,71,-99.99,,,0.00,71.000000,,2013-02-16 14:32:00,
2013-02-16 09:42:00,24.0,16.0,-100.00,NNW,343,3.0,11.0,71,-99.99,,,0.00,71.000000,,2013-02-16 14:42:00,
2013-02-16 09:52:00,24.0,16.0,-100.00,NNW,343,3.0,11.0,71,-99.99,,,0.00,71.000000,,2013-02-16 14:52:00,
2013-02-16 10:01:00,24.0,15.0,-100.00,NW,324,6.0,12.0,69,0.00,,,0.00,121.000000,,2013-02-16 15:01:00,
2013-02-16 10:22:00,24.0,15.0,-100.00,NW,324,6.0,12.0,69,0.00,,,0.00,121.000000,,2013-02-16 15:22:00,
2013-02-16 10:32:00,24.0,15.0,-100.00,NW,324,6.0,12.0,69,0.00,,,0.00,121.000000,,2013-02-16 15:32:00,
2013-02-16 10:42:00,24.0,15.0,-100.00,NW,324,6.0,12.0,69,0.00,,,0.00,121.000000,,2013-02-16 15:42:00,
2013-02-16 10:52:00,24.0,15.0,-100.00,NW,324,6.0,12.0,69,0.00,,,0.00,121.000000,,2013-02-16 15:52:00,
2013-02-16 11:01:00,25.0,14.0,-100.00,NW,320,5.0,12.0,63,0.00,,,0.00,154.000000,,2013-02-16 16:01:00,
2013-02-16 11:32:00,25.0,14.0,-100.00,NW,320,5.0,12.0,63,0.00,,,0.00,154.000000,,2013-02-16 16:32:00,
2013-02-16 11:42:00,25.0,14.0,-100.00,NW,320,5.0,12.0,63,0.00,,,0.00,154.000000,,2013-02-16 16:42:00,
2013-02-16 11:52:00,25.0,14.0,-100.00,NW,320,5.0,12.0,63,0.00,,,0.00,154.000000,,2013-02-16 16:52:00,
2013-02-16 12:01:00,25.0,14.0,-100.00,WNW,294,6.0,11.0,62,0.00,,,0.00,222.000000,,2013-02-16 17:01:00,
2013-02-16 12:22:00,25.0,14.0,-100.00,WNW,294,6.0,11.0,62,0.00,,,0.00,222.000000,,2013-02-16 17:22:00,
2013-02-16 12:32:00,25.0,14.0,-100.00,WNW,294,6.0,11.0,62,0.00,,,0.00,222.000000,,2013-02-16 17:32:00,
2013-02-16 12:42:00,25.0,14.0,-100.00,WNW,294,6.0,11.0,62,0.00,,,0.00,222.000000,,2013-02-16 17:42:00,
2013-02-16 12:52:00,25.0,14.0,-100.00,WNW,294,6.0,11.0,62,0.00,,,0.00,222.000000,,2013-02-16 17:52:00,
2013-02-16 13:01:00,27.0,13.0,-100.00,NNW,348,5.0,12.0,55,0.01,,,0.01,388.000000,,2013-02-16 18:01:00,
2013-02-16 13:33:00,27.0,13.0,-100.00,NNW,348,5.0,12.0,55,0.01,,,0.01,388.000000,,2013-02-16 18:33:00,
2013-02-16 13:42:00,27.0,13.0,-100.00,NNW,348,5.0,12.0,55,0.01,,,0.01,388.000000,,2013-02-16 18:42:00,
2013-02-16 13:52:00,27.0,13.0,-100.00,NNW,348,5.0,12.0,55,0.01,,,0.01,388.000000,,2013-02-16 18:52:00,
2013-02-16 14:01:00,25.0,13.0,-100.00,NNW,347,5.0,12.0,61,0.00,,,0.01,357.000000,,2013-02-16 19:01:00,
2013-02-16 14:32:00,25.0,13.0,-100.00,NNW,347,5.0,12.0,61,0.00,,,0.01,357.000000,,2013-02-16 19:32:00,
2013-02-16 14:42:00,25.0,13.0,-100.00,NNW,347,5.0,12.0,61,0.00,,,0.01,357.000000,,2013-02-16 19:42:00,
2013-02-16 14:52:00,25.0,13.0,-100.00,NNW,347,5.0,12.0,61,0.00,,,0.01,357.000000,,2013-02-16 19:52:00,
2013-02-16 15:01:00,24.0,13.0,-100.00,NNW,330,5.0,14.0,61,0.00,,,0.01,271.000000,,2013-02-16 20:01:00,
2013-02-16 15:32:00,24.0,13.0,-100.00,NNW,330,5.0,14.0,61,0.00,,,0.01,271.000000,,2013-02-16 20:32:00,
2013-02-16 15:42:00,24.0,13.0,-100.00,NNW,330,5.0,14.0,61,0.00,,,0.01,271.000000,,2013-02-16 20:42:00,
2013-02-16 15:52:00,24.0,13.0,-100.00,NNW,330,5.0,14.0,61,0.00,,,0.01,271.000000,,2013-02-16 20:52:00,
2013-02-16 16:01:00,22.0,13.0,-100.00,NNE,17,5.0,15.0,67,0.00,,,0.01,190.000000,,2013-02-16 21:01:00,
2013-02-16 16:32:00,22.0,13.0,-100.00,NNE,17,5.0,15.0,67,0.00,,,0.01,190.000000,,2013-02-16 21:32:00,
2013-02-16 16:42:00,22.0,13.0,-100.00,NNE,17,5.0,15.0,67,0.00,,,0.01,190.000000,,2013-02-16 21:42:00,
2013-02-16 16:52:00,22.0,13.0,-100.00,NNE,17,5.0,15.0,67,0.00,,,0.01,190.000000,,2013-02-16 21:52:00,
2013-02-16 17:01:00,24.0,11.0,-100.00,NNE,28,5.0,11.0,58,0.00,,,0.01,231.000000,,2013-02-16 22:01:00,
2013-02-16 17:32:00,24.0,11.0,-100.00,NNE,28,5.0,11.0,58,0.00,,,0.01,231.000000,,2013-02-16 22:32:00,
2013-02-16 17:42:00,24.0,11.0,-100.00,NNE,28,5.0,11.0,58,0.00,,,0.01,231.000000,,2013-02-16 22:42:00,
2013-02-16 17:52:00,24.0,11.0,-100.00,NNE,28,5.0,11.0,58,0.00,,,0.01,231.000000,,2013-02-16 22:52:00,
2013-02-16 18:01:00,20.0,10.0,-100.00,NNE,18,4.0,9.0,65,0.00,,,0.01,67.000000,,2013-02-16 23:01:00,
2013-02-16 18:32:00,20.0,10.0,-100.00,NNE,18,4.0,9.0,65,0.00,,,0.01,67.000000,,2013-02-16 23:32:00,
2013-02-16 18:42:00,20.0,10.0,-100.00,NNE,18,4.0,9.0,65,0.00,,,0.01,67.000000,,2013-02-16 23:42:00,
2013-02-16 18:52:00,20.0,10.0,-100.00,NNE,18,4.0,9.0,65,0.00,,,0.01,67.000000,,2013-02-16 23:52:00,
2013-02-16 19:01:00,18.0,12.0,-100.00,NNE,17,5.0,11.0,77,0.00,,,0.01,1.000000,,2013-02-17 00:01:00,
2013-02-16 19:22:00,18.0,12.0,-100.00,NNE,17,5.0,11.0,77,0.00,,,0.01,1.000000,,2013-02-17 00:22:00,
2013-02-16 19:32:00,18.0,12.0,-100.00,NNE,17,5.0,11.0,77,0.00,,,0.01,1.000000,,2013-02-17 00:32:00,
2013-02-16 19:42:00,18.0,12.0,-100.00,NNE,17,5.0,11.0,77,0.00,,,0.01,1.000000,,2013-02-17 00:42:00,
2013-02-16 19:52:00,18.0,12.0,-100.00,NNE,17,5.0,11.0,77,0.00,,,0.01,1.000000,,2013-02-17 00:52:00,
2013-02-16 20:01:00,18.0,12.0,-100.00,NNW,347,7.0,16.0,76,0.00,,,0.01,0.000000,,2013-02-17 01:01:00,
2013-02-16 20:32:00,18.0,12.0,-100.00,NNW,347,7.0,16.0,76,0.00,,,0.01,0.000000,,2013-02-17 01:32:00,
2013-02-16 20:42:00,18.0,12.0,-100.00,NNW,347,7.0,16.0,76,0.00,,,0.01,0.000000,,2013-02-17 01:42:00,
2013-02-16 20:52:00,18.0,12.0,-100.00,NNW,347,7.0,16.0,76,0.00,,,0.01,0.000000,,2013-02-17 01:52:00,
2013-02-16 21:01:00,17.0,10.0,-100.00,North,10,4.0,12.0,73,0.00,,,0.01,0.000000,,2013-02-17 02:01:00,
2013-02-16 21:32:00,17.0,10.0,-100.00,North,10,4.0,12.0,73,0.00,,,0.01,0.000000,,2013-02-17 02:32:00,
2013-02-16 21:42:00,17.0,10.0,-100.00,North,10,4.0,12.0,73,0.00,,,0.01,0.000000,,2013-02-17 02:42:00,
2013-02-16 21:52:00,17.0,10.0,-100.00,North,10,4.0,12.0,73,0.00,,,0.01,0.000000,,2013-02-17 02:52:00,
2013-02-16 22:01:00,17.0,9.0,-100.00,North,351,4.0,11.0,71,0.00,,,0.01,0.000000,,2013-02-17 03:01:00,
2013-02-16 22:21:00,17.0,9.0,-100.00,North,351,4.0,11.0,71,0.00,,,0.01,0.000000,,2013-02-17 03:21:00,
2013-02-16 22:32:00,17.0,9.0,-100.00,North,351,4.0,11.0,71,0.00,,,0.01,0.000000,,2013-02-17 03:32:00,
2013-02-16 22:42:00,17.0,9.0,-100.00,North,351,4.0,11.0,71,0.00,,,0.01,0.000000,,2013-02-17 03:42:00,
2013-02-16 22:52:00,17.0,9.0,-100.00,North,351,4.0,11.0,71,0.00,,,0.01,0.000000,,2013-02-17 03:52:00,
2013-02-16 23:01:00,16.0,11.0,-100.00,NNW,344,5.0,12.0,79,0.00,,,0.01,0.000000,,2013-02-17 04:01:00,
2013-02-16 23:32:00,16.0,11.0,-100.00,NNW,344,5.0,12.0,79,0.00,,,0.01,0.000000,,2013-02-17 04:32:00,
2013-02-16 23:42:00,16.0,11.0,-100.00,NNW,344,5.0,12.0,79,0.00,,,0.01,0.000000,,2013-02-17 04:42:00,
2013-02-16 23:52:00,16.0,11.0,-100.00,NNW,344,5.0,12.0,79,0.00,,,0.01,0.000000,,2013-02-17 04:52:00,